Time;durP1;ratioP1;P1;durP2;ratioP2;P2;SDS_P1;SDS_P2;PMS_P1;PMS_P2;Temp;Humidity;BMP_temperature;BMP_pressure;BME280_temperature;BME280_humidity;BME280_pressure;Samples;Min_cycle;Max_cycle;Signal;HPM_P1;HPM_P2
2021/04/24 00:02:22;;;;;;;13.83;5.60;;;6.00;99.90;;;;;;5072374;28;20206;-77
2021/04/24 00:05:12;;;;;;;15.20;6.80;;;6.00;99.90;;;;;;5068722;28;20304;-77
2021/04/24 00:07:59;;;;;;;16.77;7.20;;;5.90;99.90;;;;;;5063967;28;20219;-77
2021/04/24 00:10:46;;;;;;;15.30;7.50;;;5.90;99.90;;;;;;5062403;28;20234;-77
2021/04/24 00:13:30;;;;;;;17.87;7.07;;;5.80;99.90;;;;;;5051887;28;20241;-77
2021/04/24 00:16:15;;;;;;;16.07;7.33;;;5.80;99.90;;;;;;5061497;28;20214;-77
2021/04/24 00:19:00;;;;;;;14.13;7.60;;;5.70;99.90;;;;;;5070880;28;20221;-77
2021/04/24 00:21:46;;;;;;;17.43;7.67;;;5.60;99.90;;;;;;5065657;28;20581;-77
2021/04/24 00:24:31;;;;;;;18.53;8.17;;;5.60;99.90;;;;;;5060230;28;20273;-77
2021/04/24 00:27:15;;;;;;;19.57;7.67;;;5.60;99.90;;;;;;5076076;28;20280;-77
2021/04/24 00:30:00;;;;;;;14.50;8.00;;;5.60;99.90;;;;;;5073344;28;20736;-77
2021/04/24 00:32:46;;;;;;;16.50;7.10;;;5.50;99.90;;;;;;5070843;28;20209;-77
2021/04/24 00:35:31;;;;;;;18.37;7.40;;;5.50;99.90;;;;;;5071584;28;20198;-77
2021/04/24 00:38:17;;;;;;;15.63;7.17;;;5.50;99.90;;;;;;5078393;28;20741;-77
2021/04/24 00:41:01;;;;;;;16.33;7.27;;;5.40;99.90;;;;;;5067396;28;20202;-77
2021/04/24 00:43:46;;;;;;;15.53;7.27;;;5.40;99.90;;;;;;5060789;28;20219;-77
2021/04/24 00:46:31;;;;;;;14.23;6.97;;;5.40;99.90;;;;;;5074459;28;20197;-77
2021/04/24 00:49:16;;;;;;;14.73;7.53;;;5.30;99.90;;;;;;5082257;28;20233;-77
2021/04/24 00:52:00;;;;;;;18.43;7.77;;;5.30;99.90;;;;;;5076100;28;20210;-77
2021/04/24 00:54:46;;;;;;;17.90;7.47;;;5.30;99.90;;;;;;5078775;28;20209;-77
2021/04/24 00:57:32;;;;;;;19.43;7.77;;;5.30;99.90;;;;;;5067658;28;20210;-77
2021/04/24 01:00:22;;;;;;;14.70;7.13;;;5.20;99.90;;;;;;5074181;28;20284;-77
2021/04/24 01:03:07;;;;;;;17.20;8.03;;;5.20;99.90;;;;;;5082790;28;20324;-77
2021/04/24 01:05:52;;;;;;;14.93;7.53;;;5.10;99.90;;;;;;5068227;28;20230;-77
2021/04/24 01:08:36;;;;;;;19.07;7.80;;;5.10;99.90;;;;;;5064714;28;20735;-77
2021/04/24 01:11:22;;;;;;;14.70;6.80;;;5.10;99.90;;;;;;5076189;28;20733;-77
2021/04/24 01:14:06;;;;;;;16.63;8.20;;;5.00;99.90;;;;;;5063672;28;20226;-77
2021/04/24 01:16:51;;;;;;;15.50;7.03;;;5.00;99.90;;;;;;5067200;28;20211;-77
2021/04/24 01:19:36;;;;;;;15.57;7.30;;;4.90;99.90;;;;;;5075629;28;20249;-77
2021/04/24 01:22:22;;;;;;;14.07;6.50;;;4.90;99.90;;;;;;5075696;28;20229;-77
2021/04/24 01:25:09;;;;;;;16.17;7.30;;;4.80;99.90;;;;;;5067219;28;20206;-77
2021/04/24 01:27:57;;;;;;;15.23;6.50;;;4.70;99.90;;;;;;5060236;28;20228;-77
2021/04/24 01:30:45;;;;;;;13.33;6.87;;;4.80;99.90;;;;;;5060479;28;20237;-77
2021/04/24 01:33:29;;;;;;;16.27;6.83;;;4.60;99.90;;;;;;5059865;28;20199;-77
2021/04/24 01:36:14;;;;;;;16.50;7.60;;;4.60;99.90;;;;;;5081041;28;20211;-79
2021/04/24 01:39:00;;;;;;;16.53;7.70;;;4.60;99.90;;;;;;5068032;28;20234;-79
2021/04/24 01:41:45;;;;;;;17.53;7.90;;;4.50;99.90;;;;;;5079741;28;20242;-79
2021/04/24 01:44:29;;;;;;;20.07;8.67;;;4.50;99.90;;;;;;5073471;28;20750;-79
2021/04/24 01:47:14;;;;;;;17.70;8.93;;;4.40;99.90;;;;;;5072018;28;20220;-78
2021/04/24 01:49:59;;;;;;;16.93;7.50;;;4.40;99.90;;;;;;5077333;28;20222;-78
2021/04/24 01:52:46;;;;;;;15.93;7.60;;;4.40;99.90;;;;;;5072327;28;20633;-79
2021/04/24 01:55:34;;;;;;;17.30;8.03;;;4.30;99.90;;;;;;5075325;28;20231;-79
2021/04/24 01:58:22;;;;;;;17.57;7.77;;;4.30;99.90;;;;;;5076661;28;20291;-78
2021/04/24 02:01:08;;;;;;;17.83;8.67;;;4.30;99.90;;;;;;5090912;28;20212;-79
2021/04/24 02:03:53;;;;;;;17.17;7.93;;;4.30;99.90;;;;;;5076339;28;20217;-79
2021/04/24 02:06:38;;;;;;;20.70;8.73;;;4.30;99.90;;;;;;5073822;28;20725;-79
2021/04/24 02:09:24;;;;;;;19.03;8.33;;;4.30;99.90;;;;;;5079490;28;20227;-79
2021/04/24 02:12:12;;;;;;;16.20;8.53;;;4.20;99.90;;;;;;5074852;28;20252;-78
2021/04/24 02:14:58;;;;;;;19.40;8.60;;;4.20;99.90;;;;;;5071861;28;20268;-78
2021/04/24 02:17:43;;;;;;;19.17;8.00;;;4.30;99.90;;;;;;5062612;28;20206;-79
2021/04/24 02:20:28;;;;;;;17.77;7.87;;;4.30;99.90;;;;;;5075945;28;20245;-78
2021/04/24 02:23:14;;;;;;;19.03;9.40;;;4.30;99.90;;;;;;5070149;28;20214;-79
2021/04/24 02:25:59;;;;;;;22.27;8.27;;;4.30;99.90;;;;;;5075840;28;20487;-78
2021/04/24 02:28:44;;;;;;;18.33;8.50;;;4.30;99.90;;;;;;5071508;28;20276;-79
2021/04/24 02:31:29;;;;;;;17.37;8.13;;;4.20;99.90;;;;;;5067598;28;20212;-79
2021/04/24 02:34:15;;;;;;;18.87;7.80;;;4.20;99.90;;;;;;5067379;28;20229;-78
2021/04/24 02:37:00;;;;;;;16.33;7.43;;;4.20;99.90;;;;;;5074914;28;20314;-78
2021/04/24 02:39:48;;;;;;;19.40;7.10;;;4.20;99.90;;;;;;5071734;28;20226;-79
2021/04/24 02:42:33;;;;;;;16.80;7.67;;;4.20;99.90;;;;;;5065130;28;20717;-79
2021/04/24 02:45:19;;;;;;;18.53;7.20;;;4.20;99.90;;;;;;5071156;28;20287;-79
2021/04/24 02:48:05;;;;;;;13.87;7.13;;;4.10;99.90;;;;;;5069180;28;20273;-78
2021/04/24 02:50:50;;;;;;;21.17;8.53;;;4.10;99.90;;;;;;5065895;28;20245;-79
2021/04/24 02:53:35;;;;;;;17.13;8.10;;;4.10;99.90;;;;;;5067875;28;20203;-78
2021/04/24 02:56:19;;;;;;;16.73;8.47;;;4.00;99.90;;;;;;5073326;28;20211;-79
2021/04/24 02:59:04;;;;;;;16.70;7.33;;;4.00;99.90;;;;;;5075003;28;20275;-78
2021/04/24 03:01:51;;;;;;;14.90;7.40;;;4.00;99.90;;;;;;5075461;28;20210;-78
2021/04/24 03:04:36;;;;;;;22.40;7.83;;;4.00;99.90;;;;;;5060752;28;20215;-78
2021/04/24 03:07:21;;;;;;;19.23;8.07;;;3.90;99.90;;;;;;5071059;28;20219;-78
2021/04/24 03:10:07;;;;;;;18.03;8.00;;;3.90;99.90;;;;;;5074544;28;20227;-79
2021/04/24 03:12:53;;;;;;;18.60;8.03;;;3.80;99.90;;;;;;5064511;28;20215;-78
2021/04/24 03:15:39;;;;;;;18.67;9.60;;;3.70;99.90;;;;;;5061972;28;20214;-78
2021/04/24 03:18:25;;;;;;;24.10;8.33;;;3.80;99.90;;;;;;5070069;28;20215;-78
2021/04/24 03:21:10;;;;;;;19.50;8.93;;;3.70;99.90;;;;;;5071217;28;20218;-78
2021/04/24 03:23:57;;;;;;;20.50;9.40;;;3.70;99.90;;;;;;5056942;28;20202;-77
2021/04/24 03:26:42;;;;;;;20.70;9.23;;;3.70;99.90;;;;;;5080897;28;20573;-78
2021/04/24 03:29:27;;;;;;;23.43;9.30;;;3.70;99.90;;;;;;5069537;28;20226;-79
2021/04/24 03:32:11;;;;;;;20.90;8.67;;;3.60;99.90;;;;;;5076811;28;20282;-78
2021/04/24 03:34:57;;;;;;;23.50;9.60;;;3.60;99.90;;;;;;5069716;28;20210;-78
2021/04/24 03:37:42;;;;;;;22.97;9.33;;;3.60;99.90;;;;;;5076565;28;20277;-78
2021/04/24 03:40:27;;;;;;;26.10;9.97;;;3.60;99.90;;;;;;5073343;28;20230;-79
2021/04/24 03:43:12;;;;;;;21.43;10.13;;;3.60;99.90;;;;;;5069059;28;20257;-78
2021/04/24 03:45:57;;;;;;;22.23;9.30;;;3.60;99.90;;;;;;5068828;28;20380;-79
2021/04/24 03:48:41;;;;;;;18.53;8.57;;;3.60;99.90;;;;;;5077722;28;20221;-78
2021/04/24 03:51:27;;;;;;;22.07;9.67;;;3.60;99.90;;;;;;5073696;28;20218;-78
2021/04/24 03:54:12;;;;;;;22.60;10.10;;;3.60;99.90;;;;;;5070587;28;20712;-79
2021/04/24 03:56:56;;;;;;;19.13;8.67;;;3.60;99.90;;;;;;5077299;28;20205;-78
2021/04/24 03:59:41;;;;;;;25.50;9.47;;;3.50;99.90;;;;;;5077983;28;20278;-79
2021/04/24 04:02:26;;;;;;;17.97;8.20;;;3.50;99.90;;;;;;5073046;28;20223;-78
2021/04/24 04:05:12;;;;;;;19.37;8.67;;;3.50;99.90;;;;;;5068203;28;20232;-79
2021/04/24 04:07:59;;;;;;;18.97;8.77;;;3.40;99.90;;;;;;5084383;28;20256;-78
2021/04/24 04:10:45;;;;;;;19.70;8.17;;;3.40;99.90;;;;;;5073617;28;20227;-78
2021/04/24 04:13:30;;;;;;;19.33;8.80;;;3.40;99.90;;;;;;5060294;28;20582;-78
2021/04/24 04:16:14;;;;;;;16.63;7.97;;;3.40;99.90;;;;;;5060399;28;20221;-78
2021/04/24 04:18:59;;;;;;;18.67;8.20;;;3.30;99.90;;;;;;5067320;28;20222;-78
2021/04/24 04:21:44;;;;;;;18.80;8.00;;;3.30;99.90;;;;;;5076086;28;20210;-78
2021/04/24 04:24:29;;;;;;;21.93;9.00;;;3.30;99.90;;;;;;5076320;28;20233;-77
2021/04/24 04:27:14;;;;;;;21.77;8.13;;;3.30;99.90;;;;;;5079655;28;20617;-76
2021/04/24 04:29:59;;;;;;;21.90;8.33;;;3.20;99.90;;;;;;5068515;28;20228;-77
2021/04/24 04:32:44;;;;;;;19.30;8.90;;;3.20;99.90;;;;;;5079392;28;20218;-76
2021/04/24 04:35:29;;;;;;;19.20;8.20;;;3.10;99.90;;;;;;5074630;28;20271;-76
2021/04/24 04:38:17;;;;;;;18.37;8.43;;;3.10;99.90;;;;;;5074800;28;20202;-78
2021/04/24 04:41:04;;;;;;;18.33;8.33;;;3.10;99.90;;;;;;5063222;28;20267;-77
2021/04/24 04:43:49;;;;;;;17.80;8.63;;;3.00;99.90;;;;;;5059820;28;20193;-77
2021/04/24 04:46:33;;;;;;;20.47;8.03;;;3.00;99.90;;;;;;5056653;28;20282;-77
2021/04/24 04:49:18;;;;;;;20.10;9.13;;;3.00;99.90;;;;;;5063329;28;20230;-77
2021/04/24 04:52:03;;;;;;;21.03;9.13;;;3.00;99.90;;;;;;5076045;28;20286;-76
2021/04/24 04:54:49;;;;;;;17.77;8.43;;;3.00;99.90;;;;;;5080763;28;20201;-77
2021/04/24 04:57:35;;;;;;;21.67;9.80;;;3.00;99.90;;;;;;5082069;28;20206;-77
2021/04/24 05:00:22;;;;;;;28.60;9.67;;;3.00;99.90;;;;;;5091142;28;20226;-76
2021/04/24 05:03:07;;;;;;;22.63;9.13;;;3.00;99.90;;;;;;5074497;28;20210;-78
2021/04/24 05:05:52;;;;;;;20.07;9.80;;;3.10;99.90;;;;;;5073720;28;20217;-78
2021/04/24 05:08:37;;;;;;;25.30;9.33;;;3.20;99.90;;;;;;5069620;28;20226;-77
2021/04/24 05:11:21;;;;;;;26.77;10.17;;;3.10;99.90;;;;;;5070311;28;20264;-78
2021/04/24 05:14:07;;;;;;;22.67;9.23;;;3.30;99.90;;;;;;5057018;28;20225;-77
2021/04/24 05:16:52;;;;;;;23.10;9.57;;;3.30;99.90;;;;;;5066697;28;20212;-78
2021/04/24 05:19:37;;;;;;;25.33;9.87;;;3.30;99.90;;;;;;5062422;28;20226;-78
2021/04/24 05:22:22;;;;;;;26.60;9.57;;;3.40;99.90;;;;;;5071933;28;20211;-78
2021/04/24 05:25:07;;;;;;;23.80;10.50;;;3.40;99.90;;;;;;5077323;28;20224;-78
2021/04/24 05:27:52;;;;;;;24.30;11.47;;;3.50;99.90;;;;;;5074344;28;20215;-78
2021/04/24 05:30:38;;;;;;;27.93;11.13;;;3.60;99.90;;;;;;5084754;28;20269;-77
2021/04/24 05:33:23;;;;;;;35.40;12.07;;;3.70;99.90;;;;;;5077820;28;20276;-78
2021/04/24 05:36:10;;;;;;;33.07;12.30;;;3.80;99.90;;;;;;5075587;28;20207;-77
2021/04/24 05:38:56;;;;;;;28.50;11.23;;;3.80;99.90;;;;;;5077788;28;20221;-77
2021/04/24 05:41:41;;;;;;;29.00;11.73;;;4.00;99.90;;;;;;5076807;28;20226;-78
2021/04/24 05:44:25;;;;;;;26.67;11.50;;;4.00;99.90;;;;;;5084200;28;20237;-79
2021/04/24 05:47:11;;;;;;;26.97;11.93;;;4.10;99.90;;;;;;5081496;28;20218;-79
2021/04/24 05:49:55;;;;;;;26.37;10.93;;;4.20;99.90;;;;;;5084555;28;20253;-79
2021/04/24 05:52:40;;;;;;;21.93;9.97;;;4.30;99.90;;;;;;5080496;28;20706;-80
2021/04/24 05:55:25;;;;;;;30.37;11.83;;;4.30;99.90;;;;;;5076700;28;20234;-79
2021/04/24 05:58:10;;;;;;;27.70;11.87;;;4.40;99.90;;;;;;5073051;28;20211;-80
2021/04/24 06:00:55;;;;;;;31.73;11.87;;;4.50;99.90;;;;;;5072978;28;20794;-77
2021/04/24 06:03:40;;;;;;;23.43;10.83;;;4.70;99.90;;;;;;5083972;28;20218;-78
2021/04/24 06:06:25;;;;;;;26.77;11.70;;;4.70;99.90;;;;;;5074181;28;20206;-77
2021/04/24 06:09:10;;;;;;;22.50;9.63;;;4.80;99.90;;;;;;5077279;28;20401;-76
2021/04/24 06:11:55;;;;;;;22.27;10.33;;;4.90;99.90;;;;;;5081102;28;20538;-78
2021/04/24 06:14:39;;;;;;;22.17;9.83;;;5.00;99.90;;;;;;5078520;28;20261;-76
2021/04/24 06:17:25;;;;;;;21.63;9.10;;;5.20;99.90;;;;;;5077662;28;20205;-77
2021/04/24 06:20:15;;;;;;;23.07;9.67;;;5.30;99.90;;;;;;5075942;28;20230;-78
2021/04/24 06:23:00;;;;;;;20.80;9.23;;;5.30;99.90;;;;;;5082264;28;20245;-77
2021/04/24 06:25:45;;;;;;;21.23;9.40;;;5.40;99.90;;;;;;5075560;28;20225;-77
2021/04/24 06:28:29;;;;;;;23.40;9.03;;;5.50;99.90;;;;;;5066814;28;20269;-77
2021/04/24 06:31:14;;;;;;;19.20;8.70;;;5.60;99.90;;;;;;5072990;28;20286;-77
2021/04/24 06:33:59;;;;;;;22.37;9.57;;;5.70;99.90;;;;;;5067894;28;20225;-77
2021/04/24 06:36:45;;;;;;;21.50;9.47;;;5.80;99.90;;;;;;5070693;28;20296;-77
2021/04/24 06:39:29;;;;;;;20.10;8.77;;;5.90;99.90;;;;;;5076617;28;20239;-78
2021/04/24 06:42:15;;;;;;;18.47;9.33;;;5.90;99.90;;;;;;5066373;28;20214;-78
2021/04/24 06:45:01;;;;;;;20.73;8.07;;;6.00;99.90;;;;;;5061536;28;20244;-77
2021/04/24 06:47:48;;;;;;;22.77;8.37;;;6.10;99.90;;;;;;5076126;28;20714;-77
2021/04/24 06:50:33;;;;;;;16.93;8.13;;;6.20;99.90;;;;;;5071699;28;20214;-77
2021/04/24 06:53:18;;;;;;;17.43;8.43;;;6.30;99.90;;;;;;5067497;28;20209;-77
2021/04/24 06:56:04;;;;;;;16.33;9.17;;;6.30;99.90;;;;;;5069124;28;20256;-78
2021/04/24 06:58:49;;;;;;;16.40;7.60;;;6.40;99.90;;;;;;5074071;28;20222;-78
2021/04/24 07:01:33;;;;;;;16.47;7.77;;;6.50;99.90;;;;;;5076502;28;20205;-76
2021/04/24 07:04:18;;;;;;;16.43;8.60;;;6.60;99.90;;;;;;5076836;28;20260;-77
2021/04/24 07:07:03;;;;;;;16.10;7.70;;;6.70;99.90;;;;;;5075393;28;20207;-78
2021/04/24 07:09:50;;;;;;;13.73;7.43;;;6.80;99.90;;;;;;5086370;28;20221;-77
2021/04/24 07:12:36;;;;;;;13.27;7.47;;;6.90;99.90;;;;;;5074212;28;20715;-77
2021/04/24 07:15:21;;;;;;;12.93;6.63;;;7.00;99.90;;;;;;5061640;28;20639;-77
2021/04/24 07:18:06;;;;;;;17.27;7.30;;;7.20;99.90;;;;;;5067698;28;20322;-77
2021/04/24 07:20:51;;;;;;;13.50;5.97;;;7.30;99.90;;;;;;5068434;28;20739;-77
2021/04/24 07:23:37;;;;;;;16.67;7.47;;;7.40;99.90;;;;;;5069502;28;20203;-77
2021/04/24 07:26:24;;;;;;;14.37;6.40;;;7.50;99.90;;;;;;5077212;28;20700;-77
2021/04/24 07:29:08;;;;;;;18.10;7.23;;;7.60;99.90;;;;;;5078634;28;20276;-77
2021/04/24 07:31:53;;;;;;;16.97;7.53;;;7.70;99.90;;;;;;5082882;28;20337;-76
2021/04/24 07:34:38;;;;;;;13.87;7.00;;;7.80;99.90;;;;;;5082119;28;20266;-77
2021/04/24 07:37:23;;;;;;;17.10;7.93;;;7.90;99.90;;;;;;5078766;28;20210;-76
2021/04/24 07:40:09;;;;;;;11.77;6.63;;;8.00;99.90;;;;;;5076484;28;20234;-77
2021/04/24 07:42:55;;;;;;;14.27;6.63;;;8.10;99.90;;;;;;5084371;28;20209;-76
2021/04/24 07:45:41;;;;;;;16.83;7.87;;;8.20;99.90;;;;;;5071869;28;20222;-78
2021/04/24 07:48:26;;;;;;;11.70;6.43;;;8.30;99.90;;;;;;5065253;28;20218;-78
2021/04/24 07:51:11;;;;;;;9.77;4.97;;;8.50;99.90;;;;;;5069114;28;20206;-78
2021/04/24 07:53:56;;;;;;;11.03;5.40;;;8.60;99.90;;;;;;5062455;28;20203;-78
2021/04/24 07:56:41;;;;;;;12.73;5.53;;;8.70;99.90;;;;;;5062973;28;20233;-77
2021/04/24 07:59:27;;;;;;;12.23;5.23;;;8.80;99.90;;;;;;5071143;28;20306;-77
2021/04/24 08:02:13;;;;;;;8.67;4.43;;;8.90;99.90;;;;;;5075779;28;20218;-78
2021/04/24 08:05:01;;;;;;;8.80;4.63;;;9.00;99.90;;;;;;5064193;28;20707;-77
2021/04/24 08:07:46;;;;;;;7.50;4.10;;;9.20;99.90;;;;;;5073384;28;20217;-76
2021/04/24 08:10:32;;;;;;;9.27;3.90;;;9.30;99.90;;;;;;5073483;28;20832;-76
2021/04/24 08:13:16;;;;;;;7.53;3.60;;;9.40;99.90;;;;;;5048999;28;20581;-77
2021/04/24 08:16:02;;;;;;;6.90;3.10;;;9.50;99.90;;;;;;5056842;28;20210;-77
2021/04/24 08:18:47;;;;;;;8.83;3.93;;;9.70;99.90;;;;;;5062794;28;20226;-77
2021/04/24 08:21:32;;;;;;;8.23;3.53;;;9.80;99.90;;;;;;5074165;28;20233;-77
2021/04/24 08:24:17;;;;;;;8.27;3.87;;;10.00;99.90;;;;;;5073003;28;20193;-76
2021/04/24 08:27:03;;;;;;;7.23;3.83;;;10.10;99.90;;;;;;5073914;28;20268;-78
2021/04/24 08:29:48;;;;;;;8.57;4.27;;;10.20;99.90;;;;;;5062773;28;20246;-78
2021/04/24 08:32:33;;;;;;;6.67;3.40;;;10.40;99.90;;;;;;5068599;28;20210;-77
2021/04/24 08:35:18;;;;;;;7.73;3.63;;;10.50;99.90;;;;;;5061443;28;20269;-77
2021/04/24 08:38:04;;;;;;;7.20;3.73;;;10.60;99.90;;;;;;5065733;28;20716;-77
2021/04/24 08:40:49;;;;;;;7.40;4.23;;;10.80;99.90;;;;;;5071728;28;20292;-77
2021/04/24 08:43:37;;;;;;;7.17;3.60;;;11.00;99.90;;;;;;5073357;28;20244;-76
2021/04/24 08:46:22;;;;;;;9.77;3.33;;;11.10;99.90;;;;;;5055082;28;20241;-77
2021/04/24 08:49:08;;;;;;;4.93;2.50;;;11.30;99.90;;;;;;5070445;28;20234;-77
2021/04/24 08:51:53;;;;;;;7.13;3.20;;;11.40;99.90;;;;;;5068070;28;20693;-77
2021/04/24 08:54:38;;;;;;;8.00;3.40;;;11.60;99.90;;;;;;5064937;28;20607;-77
2021/04/24 08:57:23;;;;;;;5.87;3.20;;;11.70;99.90;;;;;;5068013;28;20238;-77
2021/04/24 09:00:09;;;;;;;8.37;3.77;;;11.90;99.90;;;;;;5067830;28;20234;-77
2021/04/24 09:02:55;;;;;;;7.97;4.20;;;12.00;99.90;;;;;;5067626;28;20626;-77
2021/04/24 09:05:42;;;;;;;7.90;4.33;;;12.20;99.90;;;;;;5066950;28;20725;-77
2021/04/24 09:08:29;;;;;;;7.67;4.10;;;12.40;99.90;;;;;;5072698;28;20240;-77
2021/04/24 09:11:14;;;;;;;7.77;3.83;;;12.60;99.90;;;;;;5066041;28;20208;-78
2021/04/24 09:14:00;;;;;;;7.53;3.47;;;12.80;99.90;;;;;;5065803;28;20563;-78
2021/04/24 09:16:49;;;;;;;8.03;3.37;;;13.00;99.90;;;;;;5080250;28;20208;-76
2021/04/24 09:19:35;;;;;;;5.03;3.10;;;13.20;99.90;;;;;;5066729;28;20247;-77
2021/04/24 09:22:24;;;;;;;6.40;3.30;;;13.50;99.90;;;;;;5074911;28;20254;-78
2021/04/24 09:25:09;;;;;;;5.40;3.37;;;13.70;99.90;;;;;;5065589;28;20212;-78
2021/04/24 09:27:54;;;;;;;5.10;3.10;;;14.00;99.90;;;;;;5073162;28;20866;-78
2021/04/24 09:30:41;;;;;;;6.40;3.50;;;14.40;99.90;;;;;;5067830;28;20234;-78
2021/04/24 09:33:31;;;;;;;6.07;3.80;;;14.80;99.90;;;;;;5070331;28;20253;-78
2021/04/24 09:36:17;;;;;;;13.57;4.57;;;15.30;99.40;;;;;;5072637;28;20286;-78
2021/04/24 09:39:06;;;;;;;11.70;4.03;;;15.80;98.20;;;;;;5083593;28;20226;-78
2021/04/24 09:41:51;;;;;;;5.57;3.13;;;16.50;98.30;;;;;;5072162;28;20211;-77
2021/04/24 09:44:35;;;;;;;5.83;3.23;;;17.10;93.90;;;;;;5084048;28;20225;-78
2021/04/24 09:47:20;;;;;;;5.87;3.10;;;17.80;89.70;;;;;;5075069;28;20212;-79
2021/04/24 09:50:13;;;;;;;7.80;3.50;;;18.40;85.40;;;;;;5071013;28;20313;-77
2021/04/24 09:53:16;;;;;;;6.00;3.20;;;19.00;84.60;;;;;;5077907;28;20208;-77
2021/04/24 09:56:01;;;;;;;7.03;3.77;;;19.60;79.10;;;;;;5083270;28;20247;-78
2021/04/24 09:58:46;;;;;;;6.73;3.67;;;20.00;74.30;;;;;;5072386;28;20277;-78
2021/04/24 10:01:32;;;;;;;7.70;3.33;;;20.50;74.30;;;;;;5085157;28;21042;-78
2021/04/24 10:04:17;;;;;;;3.97;2.67;;;20.90;72.30;;;;;;5066561;28;20216;-78
2021/04/24 10:07:02;;;;;;;3.67;2.97;;;21.30;74.20;;;;;;5075541;28;20221;-78
2021/04/24 10:09:46;;;;;;;5.53;3.43;;;21.90;66.20;;;;;;5078467;28;20288;-78
2021/04/24 10:12:32;;;;;;;6.80;3.60;;;22.50;64.50;;;;;;5075289;28;20693;-78
2021/04/24 10:15:34;;;;;;;5.93;3.83;;;23.10;62.00;;;;;;5071165;28;20217;-78
2021/04/24 10:18:18;;;;;;;7.83;3.60;;;23.90;61.30;;;;;;5074164;28;20259;-78
2021/04/24 10:21:03;;;;;;;6.33;3.50;;;24.40;58.20;;;;;;5072550;28;20207;-78
2021/04/24 10:23:49;;;;;;;3.70;2.90;;;24.80;54.90;;;;;;5074485;28;20207;-78
2021/04/24 10:26:35;;;;;;;4.23;2.80;;;25.20;53.60;;;;;;5074272;28;20727;-77
2021/04/24 10:29:22;;;;;;;5.32;3.72;;;25.60;56.60;;;;;;5073237;28;20233;-78
2021/04/24 10:32:08;;;;;;;5.50;3.97;;;26.00;54.00;;;;;;5072249;28;20563;-78
2021/04/24 10:34:53;;;;;;;6.35;3.47;;;26.50;53.60;;;;;;5061972;28;20257;-78
2021/04/24 10:37:38;;;;;;;3.50;2.42;;;27.00;49.70;;;;;;5064662;28;20241;-78
2021/04/24 10:40:23;;;;;;;4.90;2.83;;;27.50;48.20;;;;;;5066446;28;20710;-78
2021/04/24 10:43:09;;;;;;;4.68;3.15;;;28.00;48.70;;;;;;5070128;28;20243;-79
2021/04/24 10:46:16;;;;;;;4.43;2.90;;;28.40;49.10;;;;;;5060023;28;20218;-78
2021/04/24 10:49:24;;;;;;;4.53;3.00;;;28.80;47.40;;;;;;5063688;28;20581;-78
2021/04/24 10:52:19;;;;;;;4.95;3.35;;;29.30;47.40;;;;;;5060077;28;20570;-79
2021/04/24 10:55:17;;;;;;;4.85;3.50;;;29.70;44.30;;;;;;5070418;28;20197;-78
2021/04/24 10:58:03;;;;;;;5.95;3.28;;;30.10;43.60;;;;;;5061527;28;20259;-78
2021/04/24 11:00:55;;;;;;;7.25;3.95;;;30.30;44.30;;;;;;5069978;28;20323;-79
2021/04/24 11:03:44;;;;;;;5.53;3.30;;;30.40;41.60;;;;;;5080539;28;20294;-78
2021/04/24 11:06:29;;;;;;;4.30;3.22;;;30.60;42.50;;;;;;5072542;28;20209;-78
2021/04/24 11:09:18;;;;;;;3.28;2.67;;;30.80;41.90;;;;;;5071251;28;20229;-78
2021/04/24 11:12:04;;;;;;;5.68;3.97;;;30.80;45.00;;;;;;5066815;28;20225;-78
2021/04/24 11:14:49;;;;;;;5.30;3.28;;;30.90;41.30;;;;;;5073296;28;20927;-79
2021/04/24 11:17:36;;;;;;;5.07;3.47;;;31.00;43.10;;;;;;5071820;28;20356;-79
2021/04/24 11:20:47;;;;;;;5.43;3.92;;;31.20;42.60;;;;;;5069939;28;20402;-78
2021/04/24 11:23:51;;;;;;;5.72;3.00;;;31.40;44.50;;;;;;5068636;28;20206;-80
2021/04/24 11:26:51;;;;;;;6.82;3.38;;;31.80;41.50;;;;;;5067917;28;20325;-79
2021/04/24 11:29:37;;;;;;;5.05;3.58;;;32.00;41.10;;;;;;5072531;28;20786;-79
2021/04/24 11:32:22;;;;;;;5.28;3.97;;;32.10;40.50;;;;;;5071540;28;20209;-81
2021/04/24 11:35:12;;;;;;;6.38;3.45;;;32.10;41.40;;;;;;5063303;28;20217;-81
2021/04/24 11:37:57;;;;;;;4.55;3.63;;;32.20;41.30;;;;;;5082646;28;20261;-80
2021/04/24 11:40:42;;;;;;;4.78;3.38;;;32.20;39.50;;;;;;5073228;28;20270;-77
2021/04/24 11:43:28;;;;;;;4.68;3.60;;;32.20;40.40;;;;;;5072429;28;20218;-79
2021/04/24 11:46:35;;;;;;;5.93;3.13;;;32.10;39.00;;;;;;5072345;28;20322;-79
2021/04/24 11:49:23;;;;;;;5.00;4.18;;;32.00;40.30;;;;;;5078267;28;20245;-79
2021/04/24 11:52:10;;;;;;;7.72;4.47;;;31.90;39.00;;;;;;5066817;28;20218;-80
2021/04/24 11:54:55;;;;;;;5.43;4.07;;;31.70;39.80;;;;;;5067842;28;20557;-78
2021/04/24 11:57:39;;;;;;;5.97;3.67;;;31.40;39.30;;;;;;5065874;28;20270;-80
2021/04/24 12:00:28;;;;;;;7.45;4.05;;;31.00;39.40;;;;;;5080136;28;20230;-76
2021/04/24 12:03:13;;;;;;;7.53;4.13;;;30.80;38.50;;;;;;5077484;28;20703;-77
2021/04/24 12:05:58;;;;;;;6.22;4.90;;;30.50;39.90;;;;;;5069634;28;20255;-78
2021/04/24 12:08:43;;;;;;;8.38;4.88;;;30.20;40.10;;;;;;5066155;28;20344;-77
2021/04/24 12:11:28;;;;;;;7.40;5.00;;;29.90;40.10;;;;;;5074148;28;20248;-78
2021/04/24 12:14:13;;;;;;;8.75;4.50;;;29.70;41.40;;;;;;5057594;28;20209;-76
2021/04/24 12:16:58;;;;;;;6.78;5.38;;;29.50;40.70;;;;;;5067689;28;20282;-77
2021/04/24 12:19:43;;;;;;;11.80;4.40;;;29.20;40.90;;;;;;5060879;28;20221;-77
2021/04/24 12:22:28;;;;;;;7.25;3.92;;;28.90;40.00;;;;;;5080279;28;20216;-76
2021/04/24 12:25:17;;;;;;;4.72;3.65;;;28.60;41.00;;;;;;5081282;28;20220;-77
2021/04/24 12:28:03;;;;;;;6.70;3.70;;;28.20;42.70;;;;;;5080760;28;20228;-77
2021/04/24 12:30:49;;;;;;;7.55;5.32;;;27.80;41.50;;;;;;5071434;28;20289;-78
2021/04/24 12:33:35;;;;;;;9.93;5.10;;;27.40;42.80;;;;;;5068877;28;20583;-77
2021/04/24 12:36:20;;;;;;;5.22;4.13;;;27.00;42.70;;;;;;5066894;28;20259;-77
2021/04/24 12:39:15;;;;;;;5.57;3.83;;;26.50;43.50;;;;;;5071440;28;20630;-77
2021/04/24 12:42:03;;;;;;;8.10;3.93;;;26.10;43.80;;;;;;5071487;28;20731;-77
2021/04/24 12:44:47;;;;;;;8.35;4.55;;;25.80;45.10;;;;;;5058523;28;20640;-77
2021/04/24 12:47:34;;;;;;;7.28;4.50;;;25.50;45.10;;;;;;5076157;28;20209;-76
2021/04/24 12:50:23;;;;;;;6.97;4.30;;;25.20;46.10;;;;;;5078365;28;20226;-77
2021/04/24 12:53:10;;;;;;;6.90;4.87;;;25.00;46.10;;;;;;5078967;28;20209;-76
2021/04/24 12:56:01;;;;;;;5.13;3.30;;;24.80;46.60;;;;;;5068587;28;20216;-78
2021/04/24 12:58:49;;;;;;;7.30;3.83;;;24.60;46.60;;;;;;5062682;28;20231;-79
2021/04/24 13:01:35;;;;;;;9.37;4.23;;;24.40;45.90;;;;;;5082544;28;20216;-79
2021/04/24 13:04:20;;;;;;;3.43;3.10;;;24.30;46.50;;;;;;5072974;28;20232;-77
2021/04/24 13:07:05;;;;;;;7.93;4.17;;;24.00;47.50;;;;;;5077346;28;20208;-79
2021/04/24 13:09:50;;;;;;;7.30;4.27;;;23.80;47.10;;;;;;5074073;28;20831;-76
2021/04/24 13:12:35;;;;;;;7.60;4.00;;;23.60;47.80;;;;;;5078673;28;20237;-78
2021/04/24 13:15:21;;;;;;;9.83;4.40;;;23.40;47.20;;;;;;5075503;28;20297;-76
2021/04/24 13:18:23;;;;;;;8.40;4.60;;;23.20;47.50;;;;;;5077336;28;20199;-76
2021/04/24 13:21:23;;;;;;;4.50;3.37;;;23.00;48.10;;;;;;5075995;28;20214;-77
2021/04/24 13:24:11;;;;;;;5.00;3.03;;;22.70;48.10;;;;;;5077611;28;20211;-77
2021/04/24 13:27:00;;;;;;;5.63;3.57;;;22.50;49.80;;;;;;5074548;28;20248;-79
2021/04/24 13:29:45;;;;;;;6.17;4.07;;;22.40;48.80;;;;;;5072900;28;20292;-78
2021/04/24 13:32:30;;;;;;;7.30;3.57;;;22.30;49.70;;;;;;5074932;28;20206;-77
2021/04/24 13:35:15;;;;;;;6.47;3.83;;;22.20;50.90;;;;;;5072839;28;20219;-77
2021/04/24 13:38:00;;;;;;;6.50;3.97;;;22.20;50.50;;;;;;5088144;28;20216;-78
2021/04/24 13:40:46;;;;;;;10.13;4.30;;;22.20;49.80;;;;;;5066705;28;20234;-78
2021/04/24 13:43:31;;;;;;;7.83;3.93;;;22.10;50.60;;;;;;5072483;28;20264;-82
2021/04/24 13:46:26;;;;;;;10.17;4.33;;;22.10;50.60;;;;;;5060511;28;20215;-79
2021/04/24 13:49:16;;;;;;;6.97;3.77;;;22.00;50.40;;;;;;5071838;28;20241;-79
2021/04/24 13:52:01;;;;;;;6.97;3.30;;;21.90;51.20;;;;;;5068696;28;20659;-79
2021/04/24 13:54:47;;;;;;;7.53;3.70;;;21.90;49.90;;;;;;5082653;28;20887;-77
2021/04/24 13:57:32;;;;;;;8.90;3.67;;;21.80;50.30;;;;;;5078069;28;20214;-78
2021/04/24 14:00:18;;;;;;;8.17;3.33;;;21.80;50.30;;;;;;5079810;28;20222;-79
2021/04/24 14:03:03;;;;;;;8.03;3.90;;;21.70;50.90;;;;;;5079927;28;20213;-78
2021/04/24 14:05:50;;;;;;;8.87;3.37;;;21.70;50.00;;;;;;5084807;28;20233;-80
2021/04/24 14:08:35;;;;;;;7.77;3.40;;;21.60;50.40;;;;;;5079317;28;20906;-79
2021/04/24 14:11:20;;;;;;;6.57;3.00;;;21.50;50.40;;;;;;5076551;28;20212;-78
2021/04/24 14:14:05;;;;;;;8.47;3.70;;;21.40;50.20;;;;;;5083156;28;20218;-77
2021/04/24 14:16:50;;;;;;;11.93;3.43;;;21.30;49.70;;;;;;5093770;28;20199;-75
2021/04/24 14:19:36;;;;;;;4.93;3.40;;;21.20;50.40;;;;;;5090649;28;20227;-74
2021/04/24 14:22:21;;;;;;;5.67;3.50;;;21.10;50.40;;;;;;5087807;28;20195;-76
2021/04/24 14:25:10;;;;;;;8.70;3.77;;;20.90;50.80;;;;;;5091548;28;20216;-76